sensor_id;sensor_type;location;lat;lon;timestamp;P1;durP1;ratioP1;P2;durP2;ratioP2
18693;SDS011;9477;51.414;10.362;2022-12-01T00:01:41;50.23;;;30.17;;
18693;SDS011;9477;51.414;10.362;2022-12-01T00:03:44;52.07;;;30.37;;
18693;SDS011;9477;51.414;10.362;2022-12-01T00:05:57;54.17;;;30.80;;
18693;SDS011;9477;51.414;10.362;2022-12-01T00:08:01;55.27;;;31.27;;
18693;SDS011;9477;51.414;10.362;2022-12-01T00:10:05;54.10;;;31.07;;
18693;SDS011;9477;51.414;10.362;2022-12-01T00:12:29;52.60;;;29.73;;
18693;SDS011;9477;51.414;10.362;2022-12-01T00:14:32;54.60;;;30.70;;
18693;SDS011;9477;51.414;10.362;2022-12-01T00:16:35;57.23;;;30.27;;
18693;SDS011;9477;51.414;10.362;2022-12-01T00:18:38;53.70;;;31.13;;
18693;SDS011;9477;51.414;10.362;2022-12-01T00:20:42;49.73;;;29.70;;
18693;SDS011;9477;51.414;10.362;2022-12-01T00:22:47;52.77;;;31.27;;
18693;SDS011;9477;51.414;10.362;2022-12-01T00:24:50;51.20;;;30.63;;
18693;SDS011;9477;51.414;10.362;2022-12-01T00:26:53;53.93;;;31.07;;
18693;SDS011;9477;51.414;10.362;2022-12-01T00:28:57;51.30;;;30.43;;
18693;SDS011;9477;51.414;10.362;2022-12-01T00:31:00;49.53;;;30.07;;
18693;SDS011;9477;51.414;10.362;2022-12-01T00:33:08;49.53;;;29.83;;
18693;SDS011;9477;51.414;10.362;2022-12-01T00:35:11;48.57;;;29.27;;
18693;SDS011;9477;51.414;10.362;2022-12-01T00:37:15;51.93;;;29.17;;
18693;SDS011;9477;51.414;10.362;2022-12-01T00:39:20;49.10;;;29.43;;
18693;SDS011;9477;51.414;10.362;2022-12-01T00:41:25;45.70;;;28.10;;
18693;SDS011;9477;51.414;10.362;2022-12-01T00:43:28;48.10;;;28.60;;
18693;SDS011;9477;51.414;10.362;2022-12-01T00:45:31;52.53;;;29.30;;
18693;SDS011;9477;51.414;10.362;2022-12-01T00:47:34;49.10;;;29.43;;
18693;SDS011;9477;51.414;10.362;2022-12-01T00:49:37;51.60;;;29.50;;
18693;SDS011;9477;51.414;10.362;2022-12-01T00:51:39;48.93;;;28.70;;
18693;SDS011;9477;51.414;10.362;2022-12-01T00:53:42;47.33;;;28.33;;
18693;SDS011;9477;51.414;10.362;2022-12-01T00:55:47;49.03;;;29.23;;
18693;SDS011;9477;51.414;10.362;2022-12-01T00:57:50;48.20;;;29.07;;
18693;SDS011;9477;51.414;10.362;2022-12-01T00:59:53;50.13;;;29.73;;
18693;SDS011;9477;51.414;10.362;2022-12-01T01:01:56;52.23;;;30.43;;
18693;SDS011;9477;51.414;10.362;2022-12-01T01:03:59;51.97;;;29.23;;
18693;SDS011;9477;51.414;10.362;2022-12-01T01:06:03;51.43;;;30.30;;
18693;SDS011;9477;51.414;10.362;2022-12-01T01:08:07;54.17;;;29.70;;
18693;SDS011;9477;51.414;10.362;2022-12-01T01:10:11;49.10;;;28.73;;
18693;SDS011;9477;51.414;10.362;2022-12-01T01:12:15;48.47;;;30.10;;
18693;SDS011;9477;51.414;10.362;2022-12-01T01:14:18;50.23;;;29.20;;
18693;SDS011;9477;51.414;10.362;2022-12-01T01:16:21;48.03;;;29.30;;
18693;SDS011;9477;51.414;10.362;2022-12-01T01:18:25;48.10;;;27.37;;
18693;SDS011;9477;51.414;10.362;2022-12-01T01:20:27;50.10;;;28.93;;
18693;SDS011;9477;51.414;10.362;2022-12-01T01:22:30;49.37;;;28.97;;
18693;SDS011;9477;51.414;10.362;2022-12-01T01:24:33;45.00;;;28.03;;
18693;SDS011;9477;51.414;10.362;2022-12-01T01:26:36;50.17;;;29.37;;
18693;SDS011;9477;51.414;10.362;2022-12-01T01:28:41;41.33;;;25.83;;
18693;SDS011;9477;51.414;10.362;2022-12-01T01:30:44;44.50;;;26.40;;
18693;SDS011;9477;51.414;10.362;2022-12-01T01:32:47;41.27;;;25.63;;
18693;SDS011;9477;51.414;10.362;2022-12-01T01:34:50;42.03;;;25.33;;
18693;SDS011;9477;51.414;10.362;2022-12-01T01:36:53;37.93;;;23.47;;
18693;SDS011;9477;51.414;10.362;2022-12-01T01:38:56;40.57;;;24.83;;
18693;SDS011;9477;51.414;10.362;2022-12-01T01:40:59;37.10;;;23.37;;
18693;SDS011;9477;51.414;10.362;2022-12-01T01:43:04;34.57;;;23.03;;
18693;SDS011;9477;51.414;10.362;2022-12-01T01:45:20;35.63;;;22.27;;
18693;SDS011;9477;51.414;10.362;2022-12-01T01:47:26;36.20;;;22.53;;
18693;SDS011;9477;51.414;10.362;2022-12-01T01:49:33;37.27;;;22.53;;
18693;SDS011;9477;51.414;10.362;2022-12-01T01:51:41;37.67;;;22.63;;
18693;SDS011;9477;51.414;10.362;2022-12-01T01:53:47;35.00;;;22.17;;
18693;SDS011;9477;51.414;10.362;2022-12-01T01:55:52;37.13;;;21.43;;
18693;SDS011;9477;51.414;10.362;2022-12-01T01:57:55;31.20;;;19.67;;
18693;SDS011;9477;51.414;10.362;2022-12-01T02:00:00;32.97;;;20.90;;
18693;SDS011;9477;51.414;10.362;2022-12-01T02:02:09;32.57;;;19.70;;
18693;SDS011;9477;51.414;10.362;2022-12-01T02:04:13;32.90;;;20.57;;
18693;SDS011;9477;51.414;10.362;2022-12-01T02:06:17;32.37;;;20.30;;
18693;SDS011;9477;51.414;10.362;2022-12-01T02:08:21;29.63;;;20.07;;
18693;SDS011;9477;51.414;10.362;2022-12-01T02:10:26;29.63;;;19.20;;
18693;SDS011;9477;51.414;10.362;2022-12-01T02:12:43;35.27;;;20.90;;
18693;SDS011;9477;51.414;10.362;2022-12-01T02:14:58;32.37;;;20.13;;
18693;SDS011;9477;51.414;10.362;2022-12-01T02:17:13;28.80;;;18.17;;
18693;SDS011;9477;51.414;10.362;2022-12-01T02:19:34;29.07;;;18.03;;
18693;SDS011;9477;51.414;10.362;2022-12-01T02:21:50;27.53;;;17.57;;
18693;SDS011;9477;51.414;10.362;2022-12-01T02:27:01;29.67;;;19.37;;
18693;SDS011;9477;51.414;10.362;2022-12-01T02:29:30;29.37;;;18.93;;
18693;SDS011;9477;51.414;10.362;2022-12-01T02:31:45;33.37;;;19.63;;
18693;SDS011;9477;51.414;10.362;2022-12-01T02:33:57;28.70;;;18.10;;
18693;SDS011;9477;51.414;10.362;2022-12-01T02:36:06;28.97;;;18.53;;
18693;SDS011;9477;51.414;10.362;2022-12-01T02:38:19;27.97;;;17.20;;
18693;SDS011;9477;51.414;10.362;2022-12-01T02:40:30;25.90;;;17.00;;
18693;SDS011;9477;51.414;10.362;2022-12-01T02:42:44;29.30;;;17.33;;
18693;SDS011;9477;51.414;10.362;2022-12-01T02:44:52;29.60;;;18.50;;
18693;SDS011;9477;51.414;10.362;2022-12-01T02:46:58;26.67;;;16.73;;
18693;SDS011;9477;51.414;10.362;2022-12-01T02:49:05;28.97;;;17.07;;
18693;SDS011;9477;51.414;10.362;2022-12-01T02:51:12;27.10;;;17.00;;
18693;SDS011;9477;51.414;10.362;2022-12-01T02:53:18;25.50;;;17.00;;
18693;SDS011;9477;51.414;10.362;2022-12-01T02:55:21;25.00;;;16.63;;
18693;SDS011;9477;51.414;10.362;2022-12-01T02:57:24;25.37;;;15.87;;
18693;SDS011;9477;51.414;10.362;2022-12-01T02:59:27;26.20;;;16.13;;
18693;SDS011;9477;51.414;10.362;2022-12-01T03:01:33;23.63;;;15.40;;
18693;SDS011;9477;51.414;10.362;2022-12-01T03:03:58;26.10;;;16.90;;
18693;SDS011;9477;51.414;10.362;2022-12-01T03:06:08;27.60;;;17.10;;
18693;SDS011;9477;51.414;10.362;2022-12-01T03:08:18;26.53;;;16.93;;
18693;SDS011;9477;51.414;10.362;2022-12-01T03:10:26;26.30;;;15.80;;
18693;SDS011;9477;51.414;10.362;2022-12-01T03:12:40;24.20;;;15.83;;
18693;SDS011;9477;51.414;10.362;2022-12-01T03:14:50;25.40;;;15.53;;
18693;SDS011;9477;51.414;10.362;2022-12-01T03:17:03;27.73;;;16.57;;
18693;SDS011;9477;51.414;10.362;2022-12-01T03:19:13;25.03;;;15.77;;
18693;SDS011;9477;51.414;10.362;2022-12-01T03:21:21;25.97;;;16.20;;
18693;SDS011;9477;51.414;10.362;2022-12-01T03:23:28;27.43;;;16.43;;
18693;SDS011;9477;51.414;10.362;2022-12-01T03:25:34;26.93;;;16.20;;
18693;SDS011;9477;51.414;10.362;2022-12-01T03:27:40;23.90;;;15.13;;
18693;SDS011;9477;51.414;10.362;2022-12-01T03:30:05;22.13;;;14.73;;
18693;SDS011;9477;51.414;10.362;2022-12-01T03:32:11;25.80;;;15.20;;
18693;SDS011;9477;51.414;10.362;2022-12-01T03:34:22;26.53;;;14.73;;
18693;SDS011;9477;51.414;10.362;2022-12-01T03:36:28;29.13;;;16.97;;
18693;SDS011;9477;51.414;10.362;2022-12-01T03:38:35;27.97;;;17.03;;
18693;SDS011;9477;51.414;10.362;2022-12-01T03:40:39;25.00;;;15.80;;
18693;SDS011;9477;51.414;10.362;2022-12-01T03:42:44;26.67;;;16.20;;
18693;SDS011;9477;51.414;10.362;2022-12-01T03:44:52;30.00;;;16.53;;
18693;SDS011;9477;51.414;10.362;2022-12-01T03:46:58;28.63;;;16.97;;
18693;SDS011;9477;51.414;10.362;2022-12-01T03:49:05;28.90;;;17.53;;
18693;SDS011;9477;51.414;10.362;2022-12-01T03:51:11;27.83;;;17.00;;
18693;SDS011;9477;51.414;10.362;2022-12-01T03:53:17;26.27;;;16.20;;
18693;SDS011;9477;51.414;10.362;2022-12-01T03:55:26;29.90;;;17.30;;
18693;SDS011;9477;51.414;10.362;2022-12-01T03:57:30;28.70;;;17.13;;
18693;SDS011;9477;51.414;10.362;2022-12-01T03:59:37;29.27;;;18.03;;
18693;SDS011;9477;51.414;10.362;2022-12-01T04:01:41;29.43;;;17.57;;
18693;SDS011;9477;51.414;10.362;2022-12-01T04:03:46;29.43;;;18.47;;
18693;SDS011;9477;51.414;10.362;2022-12-01T04:05:49;32.10;;;19.97;;
18693;SDS011;9477;51.414;10.362;2022-12-01T04:07:54;32.30;;;18.87;;
18693;SDS011;9477;51.414;10.362;2022-12-01T04:09:57;27.80;;;17.93;;
18693;SDS011;9477;51.414;10.362;2022-12-01T04:12:00;33.47;;;19.27;;
18693;SDS011;9477;51.414;10.362;2022-12-01T04:14:28;28.43;;;18.63;;
18693;SDS011;9477;51.414;10.362;2022-12-01T04:16:31;29.40;;;18.63;;
18693;SDS011;9477;51.414;10.362;2022-12-01T04:18:34;29.63;;;18.63;;
18693;SDS011;9477;51.414;10.362;2022-12-01T04:20:37;31.97;;;18.73;;
18693;SDS011;9477;51.414;10.362;2022-12-01T04:22:40;30.37;;;19.17;;
18693;SDS011;9477;51.414;10.362;2022-12-01T04:24:44;32.13;;;19.77;;
18693;SDS011;9477;51.414;10.362;2022-12-01T04:26:48;30.43;;;18.40;;
18693;SDS011;9477;51.414;10.362;2022-12-01T04:28:50;33.37;;;19.73;;
18693;SDS011;9477;51.414;10.362;2022-12-01T04:30:53;32.53;;;19.77;;
18693;SDS011;9477;51.414;10.362;2022-12-01T04:32:56;31.77;;;18.37;;
18693;SDS011;9477;51.414;10.362;2022-12-01T04:34:59;32.27;;;18.70;;
18693;SDS011;9477;51.414;10.362;2022-12-01T04:37:02;30.87;;;18.53;;
18693;SDS011;9477;51.414;10.362;2022-12-01T04:39:06;28.87;;;17.53;;
18693;SDS011;9477;51.414;10.362;2022-12-01T04:41:10;31.73;;;18.53;;
18693;SDS011;9477;51.414;10.362;2022-12-01T04:43:14;33.73;;;18.73;;
18693;SDS011;9477;51.414;10.362;2022-12-01T04:45:17;28.43;;;17.80;;
18693;SDS011;9477;51.414;10.362;2022-12-01T04:47:20;29.40;;;18.00;;
18693;SDS011;9477;51.414;10.362;2022-12-01T04:49:23;28.20;;;17.37;;
18693;SDS011;9477;51.414;10.362;2022-12-01T04:51:26;29.53;;;17.93;;
18693;SDS011;9477;51.414;10.362;2022-12-01T04:53:29;28.23;;;17.60;;
18693;SDS011;9477;51.414;10.362;2022-12-01T04:55:35;33.33;;;18.07;;
18693;SDS011;9477;51.414;10.362;2022-12-01T04:57:40;26.73;;;17.17;;
18693;SDS011;9477;51.414;10.362;2022-12-01T04:59:43;28.13;;;18.17;;
18693;SDS011;9477;51.414;10.362;2022-12-01T05:01:46;25.97;;;16.27;;
18693;SDS011;9477;51.414;10.362;2022-12-01T05:03:49;25.93;;;17.03;;
18693;SDS011;9477;51.414;10.362;2022-12-01T05:05:59;27.13;;;16.70;;
18693;SDS011;9477;51.414;10.362;2022-12-01T05:08:02;30.90;;;18.03;;
18693;SDS011;9477;51.414;10.362;2022-12-01T05:10:06;31.47;;;18.17;;
18693;SDS011;9477;51.414;10.362;2022-12-01T05:12:09;33.03;;;18.93;;
18693;SDS011;9477;51.414;10.362;2022-12-01T05:14:14;32.67;;;19.37;;
18693;SDS011;9477;51.414;10.362;2022-12-01T05:16:18;30.40;;;17.27;;
18693;SDS011;9477;51.414;10.362;2022-12-01T05:18:22;30.43;;;18.73;;
18693;SDS011;9477;51.414;10.362;2022-12-01T05:20:26;28.23;;;17.53;;
18693;SDS011;9477;51.414;10.362;2022-12-01T05:22:46;32.97;;;18.47;;
18693;SDS011;9477;51.414;10.362;2022-12-01T05:25:06;25.13;;;15.97;;
18693;SDS011;9477;51.414;10.362;2022-12-01T05:27:09;27.13;;;17.23;;
18693;SDS011;9477;51.414;10.362;2022-12-01T05:29:14;37.60;;;19.50;;
18693;SDS011;9477;51.414;10.362;2022-12-01T05:31:17;31.47;;;19.50;;
18693;SDS011;9477;51.414;10.362;2022-12-01T05:33:19;37.43;;;21.80;;
18693;SDS011;9477;51.414;10.362;2022-12-01T05:35:22;35.77;;;21.50;;
18693;SDS011;9477;51.414;10.362;2022-12-01T05:37:25;34.57;;;20.23;;
18693;SDS011;9477;51.414;10.362;2022-12-01T05:39:32;37.10;;;21.03;;
18693;SDS011;9477;51.414;10.362;2022-12-01T05:41:35;33.13;;;19.70;;
18693;SDS011;9477;51.414;10.362;2022-12-01T05:43:38;41.77;;;21.23;;
18693;SDS011;9477;51.414;10.362;2022-12-01T05:45:42;38.07;;;21.53;;
18693;SDS011;9477;51.414;10.362;2022-12-01T05:47:45;36.37;;;22.20;;
18693;SDS011;9477;51.414;10.362;2022-12-01T05:49:48;35.43;;;21.20;;
18693;SDS011;9477;51.414;10.362;2022-12-01T05:51:51;41.07;;;22.80;;
18693;SDS011;9477;51.414;10.362;2022-12-01T05:53:54;40.97;;;23.80;;
18693;SDS011;9477;51.414;10.362;2022-12-01T05:55:57;42.43;;;24.73;;
18693;SDS011;9477;51.414;10.362;2022-12-01T05:57:59;47.03;;;24.53;;
18693;SDS011;9477;51.414;10.362;2022-12-01T06:00:03;47.93;;;25.80;;
18693;SDS011;9477;51.414;10.362;2022-12-01T06:02:08;44.23;;;24.40;;
18693;SDS011;9477;51.414;10.362;2022-12-01T06:04:11;58.80;;;31.23;;
18693;SDS011;9477;51.414;10.362;2022-12-01T06:06:14;48.63;;;27.23;;
18693;SDS011;9477;51.414;10.362;2022-12-01T06:08:17;48.47;;;25.93;;
18693;SDS011;9477;51.414;10.362;2022-12-01T06:10:20;47.63;;;26.60;;
18693;SDS011;9477;51.414;10.362;2022-12-01T06:12:23;47.50;;;26.07;;
18693;SDS011;9477;51.414;10.362;2022-12-01T06:14:26;46.73;;;26.17;;
18693;SDS011;9477;51.414;10.362;2022-12-01T06:16:29;51.10;;;26.60;;
18693;SDS011;9477;51.414;10.362;2022-12-01T06:18:34;47.40;;;26.23;;
18693;SDS011;9477;51.414;10.362;2022-12-01T06:20:38;50.10;;;26.60;;
18693;SDS011;9477;51.414;10.362;2022-12-01T06:22:41;49.27;;;26.40;;
18693;SDS011;9477;51.414;10.362;2022-12-01T06:24:44;49.20;;;25.80;;
18693;SDS011;9477;51.414;10.362;2022-12-01T06:26:47;49.77;;;25.90;;
18693;SDS011;9477;51.414;10.362;2022-12-01T06:28:50;48.37;;;26.20;;
18693;SDS011;9477;51.414;10.362;2022-12-01T06:30:53;44.33;;;24.47;;
18693;SDS011;9477;51.414;10.362;2022-12-01T06:33:03;46.93;;;25.87;;
18693;SDS011;9477;51.414;10.362;2022-12-01T06:35:08;47.93;;;25.23;;
18693;SDS011;9477;51.414;10.362;2022-12-01T06:37:12;46.03;;;24.90;;
18693;SDS011;9477;51.414;10.362;2022-12-01T06:39:16;46.27;;;25.53;;
18693;SDS011;9477;51.414;10.362;2022-12-01T06:41:19;47.33;;;24.90;;
18693;SDS011;9477;51.414;10.362;2022-12-01T06:43:22;47.93;;;24.93;;
18693;SDS011;9477;51.414;10.362;2022-12-01T06:45:25;48.57;;;25.30;;
18693;SDS011;9477;51.414;10.362;2022-12-01T06:47:28;44.73;;;23.57;;
18693;SDS011;9477;51.414;10.362;2022-12-01T06:49:31;47.17;;;25.00;;
18693;SDS011;9477;51.414;10.362;2022-12-01T06:51:35;49.17;;;26.77;;
18693;SDS011;9477;51.414;10.362;2022-12-01T06:53:38;52.83;;;27.20;;
18693;SDS011;9477;51.414;10.362;2022-12-01T06:55:41;54.97;;;28.03;;
18693;SDS011;9477;51.414;10.362;2022-12-01T06:57:44;54.63;;;28.30;;
18693;SDS011;9477;51.414;10.362;2022-12-01T06:59:47;51.83;;;26.80;;
18693;SDS011;9477;51.414;10.362;2022-12-01T07:01:51;54.73;;;27.63;;
18693;SDS011;9477;51.414;10.362;2022-12-01T07:03:54;54.93;;;26.70;;
18693;SDS011;9477;51.414;10.362;2022-12-01T07:05:57;50.60;;;26.23;;
18693;SDS011;9477;51.414;10.362;2022-12-01T07:08:03;51.77;;;26.07;;
18693;SDS011;9477;51.414;10.362;2022-12-01T07:10:07;51.93;;;26.73;;
18693;SDS011;9477;51.414;10.362;2022-12-01T07:12:11;50.47;;;25.90;;
18693;SDS011;9477;51.414;10.362;2022-12-01T07:14:15;53.80;;;27.67;;
18693;SDS011;9477;51.414;10.362;2022-12-01T07:16:23;52.40;;;27.00;;
18693;SDS011;9477;51.414;10.362;2022-12-01T07:18:26;51.40;;;26.13;;
18693;SDS011;9477;51.414;10.362;2022-12-01T07:20:29;48.27;;;25.73;;
18693;SDS011;9477;51.414;10.362;2022-12-01T07:22:32;47.17;;;26.13;;
18693;SDS011;9477;51.414;10.362;2022-12-01T07:24:37;50.67;;;26.00;;
18693;SDS011;9477;51.414;10.362;2022-12-01T07:26:40;53.17;;;25.90;;
18693;SDS011;9477;51.414;10.362;2022-12-01T07:28:43;50.53;;;25.50;;
18693;SDS011;9477;51.414;10.362;2022-12-01T07:30:47;43.70;;;24.37;;
18693;SDS011;9477;51.414;10.362;2022-12-01T07:32:50;52.93;;;27.67;;
18693;SDS011;9477;51.414;10.362;2022-12-01T07:34:53;54.07;;;28.10;;
18693;SDS011;9477;51.414;10.362;2022-12-01T07:36:55;56.17;;;27.53;;
18693;SDS011;9477;51.414;10.362;2022-12-01T07:38:59;54.00;;;28.67;;
18693;SDS011;9477;51.414;10.362;2022-12-01T07:41:07;52.60;;;27.23;;
18693;SDS011;9477;51.414;10.362;2022-12-01T07:43:12;52.73;;;26.63;;
18693;SDS011;9477;51.414;10.362;2022-12-01T07:45:14;50.47;;;26.47;;
18693;SDS011;9477;51.414;10.362;2022-12-01T07:47:17;52.40;;;25.60;;
18693;SDS011;9477;51.414;10.362;2022-12-01T07:49:20;52.20;;;26.63;;
18693;SDS011;9477;51.414;10.362;2022-12-01T07:51:23;49.67;;;25.47;;
18693;SDS011;9477;51.414;10.362;2022-12-01T07:53:27;50.30;;;25.07;;
18693;SDS011;9477;51.414;10.362;2022-12-01T07:55:30;44.80;;;24.00;;
18693;SDS011;9477;51.414;10.362;2022-12-01T07:57:34;49.47;;;25.97;;
18693;SDS011;9477;51.414;10.362;2022-12-01T07:59:37;48.07;;;24.40;;
18693;SDS011;9477;51.414;10.362;2022-12-01T08:01:39;47.03;;;24.87;;
18693;SDS011;9477;51.414;10.362;2022-12-01T08:03:46;49.37;;;25.17;;
18693;SDS011;9477;51.414;10.362;2022-12-01T08:05:54;47.63;;;24.27;;
18693;SDS011;9477;51.414;10.362;2022-12-01T08:07:58;48.50;;;24.50;;
18693;SDS011;9477;51.414;10.362;2022-12-01T08:10:01;50.53;;;25.60;;
18693;SDS011;9477;51.414;10.362;2022-12-01T08:12:04;55.20;;;26.30;;
18693;SDS011;9477;51.414;10.362;2022-12-01T08:14:09;49.47;;;25.23;;
18693;SDS011;9477;51.414;10.362;2022-12-01T08:16:12;49.07;;;24.63;;
18693;SDS011;9477;51.414;10.362;2022-12-01T08:18:16;44.27;;;24.10;;
18693;SDS011;9477;51.414;10.362;2022-12-01T08:20:19;44.20;;;23.57;;
18693;SDS011;9477;51.414;10.362;2022-12-01T08:22:24;51.73;;;24.47;;
18693;SDS011;9477;51.414;10.362;2022-12-01T08:24:27;49.70;;;25.27;;
18693;SDS011;9477;51.414;10.362;2022-12-01T08:26:30;49.83;;;25.53;;
18693;SDS011;9477;51.414;10.362;2022-12-01T08:28:34;48.10;;;24.97;;
18693;SDS011;9477;51.414;10.362;2022-12-01T08:30:39;46.33;;;25.33;;
18693;SDS011;9477;51.414;10.362;2022-12-01T08:32:42;52.40;;;25.97;;
18693;SDS011;9477;51.414;10.362;2022-12-01T08:34:44;49.87;;;25.53;;
18693;SDS011;9477;51.414;10.362;2022-12-01T08:36:53;49.20;;;25.40;;
18693;SDS011;9477;51.414;10.362;2022-12-01T08:38:56;50.27;;;24.53;;
18693;SDS011;9477;51.414;10.362;2022-12-01T08:41:00;49.93;;;24.57;;
18693;SDS011;9477;51.414;10.362;2022-12-01T08:43:03;50.07;;;24.63;;
18693;SDS011;9477;51.414;10.362;2022-12-01T08:45:07;50.80;;;25.10;;
18693;SDS011;9477;51.414;10.362;2022-12-01T08:47:12;47.37;;;23.97;;
18693;SDS011;9477;51.414;10.362;2022-12-01T08:49:19;47.83;;;24.73;;
18693;SDS011;9477;51.414;10.362;2022-12-01T08:51:23;56.03;;;24.70;;
18693;SDS011;9477;51.414;10.362;2022-12-01T08:53:26;45.90;;;24.40;;
18693;SDS011;9477;51.414;10.362;2022-12-01T08:55:29;47.17;;;24.60;;
18693;SDS011;9477;51.414;10.362;2022-12-01T08:57:31;49.40;;;24.67;;
18693;SDS011;9477;51.414;10.362;2022-12-01T08:59:34;50.73;;;25.20;;
18693;SDS011;9477;51.414;10.362;2022-12-01T09:01:37;50.33;;;25.57;;
18693;SDS011;9477;51.414;10.362;2022-12-01T09:03:54;53.80;;;26.40;;
18693;SDS011;9477;51.414;10.362;2022-12-01T09:06:08;51.80;;;25.33;;
18693;SDS011;9477;51.414;10.362;2022-12-01T09:08:12;53.40;;;26.50;;
18693;SDS011;9477;51.414;10.362;2022-12-01T09:10:34;53.23;;;25.33;;
18693;SDS011;9477;51.414;10.362;2022-12-01T09:12:37;53.50;;;26.77;;
18693;SDS011;9477;51.414;10.362;2022-12-01T09:14:40;50.50;;;26.03;;
18693;SDS011;9477;51.414;10.362;2022-12-01T09:16:48;58.03;;;27.27;;
18693;SDS011;9477;51.414;10.362;2022-12-01T09:18:53;64.77;;;26.63;;
18693;SDS011;9477;51.414;10.362;2022-12-01T09:20:56;54.83;;;26.50;;
18693;SDS011;9477;51.414;10.362;2022-12-01T09:23:00;60.53;;;27.67;;
18693;SDS011;9477;51.414;10.362;2022-12-01T09:25:03;58.17;;;27.50;;
18693;SDS011;9477;51.414;10.362;2022-12-01T09:27:08;62.63;;;28.67;;
18693;SDS011;9477;51.414;10.362;2022-12-01T09:29:12;60.30;;;28.03;;
18693;SDS011;9477;51.414;10.362;2022-12-01T09:31:16;60.47;;;29.03;;
18693;SDS011;9477;51.414;10.362;2022-12-01T09:33:20;65.47;;;31.07;;
18693;SDS011;9477;51.414;10.362;2022-12-01T09:35:25;68.20;;;30.60;;
18693;SDS011;9477;51.414;10.362;2022-12-01T09:37:28;67.10;;;29.70;;
18693;SDS011;9477;51.414;10.362;2022-12-01T09:39:31;65.40;;;30.90;;
18693;SDS011;9477;51.414;10.362;2022-12-01T09:41:34;69.00;;;30.77;;
18693;SDS011;9477;51.414;10.362;2022-12-01T09:43:41;60.83;;;29.67;;
18693;SDS011;9477;51.414;10.362;2022-12-01T09:45:47;66.57;;;30.60;;
18693;SDS011;9477;51.414;10.362;2022-12-01T09:47:56;64.10;;;29.00;;
18693;SDS011;9477;51.414;10.362;2022-12-01T09:50:03;65.97;;;31.23;;
18693;SDS011;9477;51.414;10.362;2022-12-01T09:52:09;64.63;;;30.87;;
18693;SDS011;9477;51.414;10.362;2022-12-01T09:54:13;59.00;;;29.53;;
18693;SDS011;9477;51.414;10.362;2022-12-01T09:56:18;59.37;;;29.70;;
18693;SDS011;9477;51.414;10.362;2022-12-01T09:58:23;58.50;;;29.80;;
18693;SDS011;9477;51.414;10.362;2022-12-01T10:00:31;59.57;;;27.67;;
18693;SDS011;9477;51.414;10.362;2022-12-01T10:02:38;61.17;;;30.10;;
18693;SDS011;9477;51.414;10.362;2022-12-01T10:04:43;59.73;;;29.17;;
18693;SDS011;9477;51.414;10.362;2022-12-01T10:06:50;57.50;;;29.03;;
18693;SDS011;9477;51.414;10.362;2022-12-01T10:08:59;57.10;;;27.87;;
18693;SDS011;9477;51.414;10.362;2022-12-01T10:11:07;52.93;;;25.77;;
18693;SDS011;9477;51.414;10.362;2022-12-01T10:13:26;52.87;;;26.80;;
18693;SDS011;9477;51.414;10.362;2022-12-01T10:15:38;50.63;;;27.10;;
18693;SDS011;9477;51.414;10.362;2022-12-01T10:17:49;46.40;;;23.70;;
18693;SDS011;9477;51.414;10.362;2022-12-01T10:20:01;48.93;;;25.40;;
18693;SDS011;9477;51.414;10.362;2022-12-01T10:25:04;52.07;;;24.00;;
18693;SDS011;9477;51.414;10.362;2022-12-01T10:27:15;51.87;;;25.77;;
18693;SDS011;9477;51.414;10.362;2022-12-01T10:29:29;52.43;;;25.57;;
18693;SDS011;9477;51.414;10.362;2022-12-01T10:31:51;49.47;;;25.77;;
18693;SDS011;9477;51.414;10.362;2022-12-01T10:33:59;53.70;;;26.03;;
18693;SDS011;9477;51.414;10.362;2022-12-01T10:36:04;51.83;;;25.93;;
18693;SDS011;9477;51.414;10.362;2022-12-01T10:38:11;45.40;;;23.70;;
18693;SDS011;9477;51.414;10.362;2022-12-01T10:40:22;44.43;;;23.70;;
18693;SDS011;9477;51.414;10.362;2022-12-01T10:42:29;46.03;;;24.27;;
18693;SDS011;9477;51.414;10.362;2022-12-01T10:44:35;43.77;;;23.17;;
18693;SDS011;9477;51.414;10.362;2022-12-01T10:46:39;40.10;;;20.07;;
18693;SDS011;9477;51.414;10.362;2022-12-01T10:48:50;34.13;;;17.50;;
18693;SDS011;9477;51.414;10.362;2022-12-01T10:50:56;29.20;;;15.40;;
18693;SDS011;9477;51.414;10.362;2022-12-01T10:53:26;29.50;;;17.00;;
18693;SDS011;9477;51.414;10.362;2022-12-01T10:55:32;32.43;;;16.57;;
18693;SDS011;9477;51.414;10.362;2022-12-01T10:57:45;32.77;;;17.90;;
18693;SDS011;9477;51.414;10.362;2022-12-01T10:59:48;30.50;;;16.93;;
18693;SDS011;9477;51.414;10.362;2022-12-01T11:01:53;26.30;;;15.47;;
18693;SDS011;9477;51.414;10.362;2022-12-01T11:03:58;27.60;;;15.67;;
18693;SDS011;9477;51.414;10.362;2022-12-01T11:06:05;30.97;;;18.07;;
18693;SDS011;9477;51.414;10.362;2022-12-01T11:08:18;33.80;;;18.10;;
18693;SDS011;9477;51.414;10.362;2022-12-01T11:10:24;37.53;;;19.77;;
18693;SDS011;9477;51.414;10.362;2022-12-01T11:12:29;34.33;;;18.20;;
18693;SDS011;9477;51.414;10.362;2022-12-01T11:14:39;33.00;;;17.37;;
18693;SDS011;9477;51.414;10.362;2022-12-01T11:16:46;32.03;;;16.33;;
18693;SDS011;9477;51.414;10.362;2022-12-01T11:18:52;28.37;;;16.33;;
18693;SDS011;9477;51.414;10.362;2022-12-01T11:21:11;33.50;;;17.67;;
18693;SDS011;9477;51.414;10.362;2022-12-01T11:23:20;40.53;;;21.30;;
18693;SDS011;9477;51.414;10.362;2022-12-01T11:25:25;40.90;;;21.77;;
18693;SDS011;9477;51.414;10.362;2022-12-01T11:27:31;40.97;;;20.60;;
18693;SDS011;9477;51.414;10.362;2022-12-01T11:29:36;42.90;;;22.40;;
18693;SDS011;9477;51.414;10.362;2022-12-01T11:31:42;41.47;;;21.10;;
18693;SDS011;9477;51.414;10.362;2022-12-01T11:33:47;35.90;;;19.00;;
18693;SDS011;9477;51.414;10.362;2022-12-01T11:35:53;37.23;;;20.43;;
18693;SDS011;9477;51.414;10.362;2022-12-01T11:37:57;37.63;;;20.73;;
18693;SDS011;9477;51.414;10.362;2022-12-01T11:40:23;35.63;;;19.67;;
18693;SDS011;9477;51.414;10.362;2022-12-01T11:42:30;35.67;;;19.57;;
18693;SDS011;9477;51.414;10.362;2022-12-01T11:44:34;34.00;;;19.27;;
18693;SDS011;9477;51.414;10.362;2022-12-01T11:46:51;35.63;;;19.63;;
18693;SDS011;9477;51.414;10.362;2022-12-01T11:49:15;36.63;;;19.50;;
18693;SDS011;9477;51.414;10.362;2022-12-01T11:51:24;38.07;;;18.33;;
18693;SDS011;9477;51.414;10.362;2022-12-01T11:53:32;36.83;;;20.13;;
18693;SDS011;9477;51.414;10.362;2022-12-01T11:55:36;41.23;;;21.57;;
18693;SDS011;9477;51.414;10.362;2022-12-01T11:57:41;34.37;;;18.77;;
18693;SDS011;9477;51.414;10.362;2022-12-01T11:59:46;29.77;;;17.80;;
18693;SDS011;9477;51.414;10.362;2022-12-01T12:01:58;32.07;;;17.93;;
18693;SDS011;9477;51.414;10.362;2022-12-01T12:04:16;30.00;;;17.03;;
18693;SDS011;9477;51.414;10.362;2022-12-01T12:06:28;34.70;;;19.83;;
18693;SDS011;9477;51.414;10.362;2022-12-01T12:08:47;36.80;;;20.53;;
18693;SDS011;9477;51.414;10.362;2022-12-01T12:11:03;33.90;;;20.13;;
18693;SDS011;9477;51.414;10.362;2022-12-01T12:13:23;39.57;;;20.80;;
18693;SDS011;9477;51.414;10.362;2022-12-01T12:15:39;35.60;;;19.63;;
18693;SDS011;9477;51.414;10.362;2022-12-01T12:18:00;34.83;;;19.23;;
18693;SDS011;9477;51.414;10.362;2022-12-01T12:20:26;34.93;;;19.23;;
18693;SDS011;9477;51.414;10.362;2022-12-01T12:22:38;35.43;;;20.03;;
18693;SDS011;9477;51.414;10.362;2022-12-01T12:25:00;38.00;;;20.93;;